Time;durP1;ratioP1;P1;durP2;ratioP2;P2;SDS_P1;SDS_P2;PMS_P1;PMS_P2;Temp;Humidity;BMP_temperature;BMP_pressure;BME280_temperature;BME280_humidity;BME280_pressure;Samples;Min_cycle;Max_cycle;Signal;HPM_P1;HPM_P2
2023/07/28 00:00:56;;;;;;;15.77;8.05;;;19.00;99.90;;;;;;5062550;28;20200;-82
2023/07/28 00:03:22;;;;;;;18.60;8.75;;;19.00;99.90;;;;;;5070827;28;20308;-78
2023/07/28 00:05:52;;;;;;;15.20;7.88;;;19.00;99.90;;;;;;5070695;28;20204;-80
2023/07/28 00:08:19;;;;;;;17.58;9.10;;;19.00;99.90;;;;;;5050267;28;20205;-78
2023/07/28 00:10:45;;;;;;;15.18;8.05;;;19.00;99.90;;;;;;5067965;28;20223;-81
2023/07/28 00:13:12;;;;;;;19.33;9.07;;;19.00;99.90;;;;;;5069447;28;20243;-78
2023/07/28 00:15:39;;;;;;;18.42;9.15;;;19.10;99.90;;;;;;5070032;28;20208;-79
2023/07/28 00:18:06;;;;;;;18.58;9.30;;;19.00;99.90;;;;;;5070456;28;20230;-78
2023/07/28 00:20:33;;;;;;;20.02;8.07;;;19.10;99.90;;;;;;5069796;28;20215;-78
2023/07/28 00:23:03;;;;;;;18.38;8.77;;;19.00;99.90;;;;;;5064380;28;20675;-78
2023/07/28 00:25:30;;;;;;;23.40;9.15;;;19.10;99.90;;;;;;5051446;28;20209;-78
2023/07/28 00:27:57;;;;;;;17.15;8.77;;;19.10;99.90;;;;;;5069234;28;20224;-80
2023/07/28 00:30:24;;;;;;;20.65;9.45;;;19.10;99.90;;;;;;5063010;28;20221;-80
2023/07/28 00:32:51;;;;;;;20.08;9.13;;;19.10;99.90;;;;;;5066639;28;20641;-78
2023/07/28 00:35:17;;;;;;;22.75;11.13;;;19.10;99.90;;;;;;5052056;28;20631;-78
2023/07/28 00:37:45;;;;;;;21.30;9.90;;;19.10;99.90;;;;;;5070210;28;20204;-80
2023/07/28 00:40:12;;;;;;;19.77;10.15;;;19.10;99.90;;;;;;5069476;28;20291;-77
2023/07/28 00:42:39;;;;;;;22.92;9.73;;;19.10;99.90;;;;;;5067536;28;20220;-79
2023/07/28 00:45:06;;;;;;;21.95;10.35;;;19.10;99.90;;;;;;5041198;28;20227;-79
2023/07/28 00:47:33;;;;;;;22.15;10.60;;;19.00;99.90;;;;;;5066481;28;20204;-78
2023/07/28 00:50:01;;;;;;;23.88;10.82;;;19.00;99.90;;;;;;5056538;28;20239;-79
2023/07/28 00:52:28;;;;;;;20.20;9.88;;;19.00;99.90;;;;;;5067811;28;20201;-79
2023/07/28 00:54:55;;;;;;;23.55;10.65;;;19.00;99.90;;;;;;5051790;28;20209;-78
2023/07/28 00:57:22;;;;;;;22.42;10.20;;;19.00;99.90;;;;;;5069591;28;20216;-79
2023/07/28 00:59:48;;;;;;;24.55;11.07;;;19.00;99.90;;;;;;5046775;28;20274;-79
2023/07/28 01:02:18;;;;;;;22.55;10.45;;;19.00;99.90;;;;;;5066309;28;20220;-79
2023/07/28 01:04:46;;;;;;;20.73;9.95;;;19.00;99.90;;;;;;5069763;28;20684;-79
2023/07/28 01:07:32;;;;;;;22.77;11.35;;;19.00;99.90;;;;;;5070032;28;20229;-79
2023/07/28 01:10:05;;;;;;;26.40;12.32;;;19.00;99.90;;;;;;5051162;28;20617;-79
2023/07/28 01:12:32;;;;;;;29.42;13.23;;;19.10;99.90;;;;;;5065912;28;20219;-80
2023/07/28 01:14:59;;;;;;;24.80;11.98;;;19.00;99.90;;;;;;5065373;28;20205;-78
2023/07/28 01:17:25;;;;;;;29.42;12.90;;;19.10;99.90;;;;;;5048978;28;20196;-79
2023/07/28 01:19:53;;;;;;;29.90;13.50;;;19.10;99.90;;;;;;5068898;28;20208;-79
2023/07/28 01:22:40;;;;;;;31.13;14.45;;;19.10;99.90;;;;;;5068578;28;20204;-80
2023/07/28 01:25:23;;;;;;;32.72;14.55;;;19.10;99.90;;;;;;5063508;28;20260;-78
2023/07/28 01:27:51;;;;;;;32.88;15.10;;;19.00;99.90;;;;;;5062101;28;20647;-80
2023/07/28 01:30:20;;;;;;;31.08;13.43;;;19.00;99.90;;;;;;5068523;28;20260;-80
2023/07/28 01:32:48;;;;;;;26.60;13.20;;;19.20;99.90;;;;;;5066248;28;20207;-79
2023/07/28 01:35:16;;;;;;;28.58;13.82;;;19.10;99.90;;;;;;5069176;28;20246;-79
2023/07/28 01:37:43;;;;;;;30.27;15.85;;;19.10;99.90;;;;;;5069174;28;20204;-78
2023/07/28 01:40:10;;;;;;;26.40;13.68;;;19.10;99.90;;;;;;5064896;28;20208;-79
2023/07/28 01:42:37;;;;;;;28.55;13.55;;;19.00;99.90;;;;;;5068898;28;20224;-79
2023/07/28 01:45:04;;;;;;;29.15;14.68;;;19.00;99.90;;;;;;5050996;28;20590;-78
2023/07/28 01:47:31;;;;;;;28.92;14.02;;;19.10;99.90;;;;;;5068791;28;20212;-80
2023/07/28 01:49:58;;;;;;;30.20;14.88;;;19.10;99.90;;;;;;5066152;28;20260;-79
2023/07/28 01:52:24;;;;;;;30.38;15.48;;;19.10;99.90;;;;;;5069073;28;20210;-79
2023/07/28 01:54:51;;;;;;;31.38;16.75;;;19.10;99.90;;;;;;5060808;28;20209;-78
2023/07/28 01:57:18;;;;;;;30.77;16.20;;;19.10;99.90;;;;;;5057475;28;20213;-77
2023/07/28 01:59:45;;;;;;;33.72;15.75;;;19.10;99.90;;;;;;5067059;28;20208;-80
2023/07/28 02:02:12;;;;;;;35.28;16.45;;;19.10;99.90;;;;;;5064758;28;20793;-79
2023/07/28 02:04:39;;;;;;;32.22;16.92;;;19.10;99.90;;;;;;5064604;28;20232;-79
2023/07/28 02:07:06;;;;;;;33.78;15.32;;;19.10;99.90;;;;;;5048043;28;20280;-80
2023/07/28 02:09:33;;;;;;;38.25;17.30;;;19.30;99.90;;;;;;5049358;28;20216;-79
2023/07/28 02:12:00;;;;;;;33.00;16.67;;;19.10;99.90;;;;;;5064368;28;20236;-79
2023/07/28 02:14:27;;;;;;;35.38;16.67;;;19.20;99.90;;;;;;5066511;28;20629;-78
2023/07/28 02:16:54;;;;;;;31.45;16.58;;;19.10;99.90;;;;;;5067660;28;20265;-80
2023/07/28 02:19:21;;;;;;;32.05;16.10;;;19.00;99.90;;;;;;5065778;28;20232;-78
2023/07/28 02:21:47;;;;;;;34.20;16.77;;;19.20;99.90;;;;;;5062014;28;20594;-79
2023/07/28 02:24:14;;;;;;;36.08;17.98;;;19.20;99.90;;;;;;5056177;28;20228;-79
2023/07/28 02:26:42;;;;;;;34.28;17.60;;;19.20;99.90;;;;;;5050136;28;20629;-80
2023/07/28 02:29:08;;;;;;;35.05;16.85;;;19.20;99.90;;;;;;5068558;28;20250;-78
2023/07/28 02:31:35;;;;;;;34.55;17.35;;;19.20;99.90;;;;;;5060776;28;20235;-78
2023/07/28 02:34:02;;;;;;;29.83;17.13;;;19.10;99.90;;;;;;5046766;28;20201;-78
2023/07/28 02:36:29;;;;;;;37.28;17.17;;;19.30;99.90;;;;;;5066099;28;20211;-79
2023/07/28 02:38:56;;;;;;;32.22;16.42;;;19.10;99.90;;;;;;5066814;28;20672;-77
2023/07/28 02:41:23;;;;;;;32.92;17.88;;;19.10;99.90;;;;;;5062411;28;20235;-80
2023/07/28 02:43:50;;;;;;;44.58;18.60;;;19.10;99.90;;;;;;5068419;28;20301;-79
2023/07/28 02:46:17;;;;;;;38.08;17.88;;;19.20;99.90;;;;;;5068402;28;20208;-79
2023/07/28 02:48:44;;;;;;;33.33;16.73;;;19.20;99.90;;;;;;5068262;28;20216;-80
2023/07/28 02:51:10;;;;;;;36.10;17.63;;;19.20;99.90;;;;;;5067709;28;20200;-78
2023/07/28 02:53:37;;;;;;;33.80;17.20;;;19.20;99.90;;;;;;5067524;28;20214;-80
2023/07/28 02:56:04;;;;;;;33.58;16.50;;;19.20;99.90;;;;;;5051938;28;21971;-79
2023/07/28 02:58:31;;;;;;;36.58;17.75;;;19.20;99.90;;;;;;5057896;28;20242;-80
2023/07/28 03:00:58;;;;;;;29.20;16.20;;;19.30;99.90;;;;;;5067272;28;20219;-79
2023/07/28 03:03:25;;;;;;;28.33;16.02;;;19.30;99.90;;;;;;5063112;28;20668;-79
2023/07/28 03:05:54;;;;;;;33.45;15.73;;;19.30;99.90;;;;;;5050152;28;20311;-78
2023/07/28 03:08:24;;;;;;;37.00;16.13;;;19.30;99.90;;;;;;5066741;28;20204;-78
2023/07/28 03:10:57;;;;;;;32.63;15.20;;;19.30;99.90;;;;;;5068324;28;20213;-79
2023/07/28 03:13:25;;;;;;;29.92;15.80;;;19.40;99.90;;;;;;5068875;28;20587;-79
2023/07/28 03:15:51;;;;;;;33.25;15.43;;;19.30;99.90;;;;;;5055807;28;20208;-80
2023/07/28 03:18:18;;;;;;;36.55;15.82;;;19.30;99.90;;;;;;5038903;28;20263;-78
2023/07/28 03:20:46;;;;;;;29.25;14.75;;;19.30;99.90;;;;;;5066087;28;20208;-81
2023/07/28 03:23:14;;;;;;;32.08;15.23;;;19.30;99.90;;;;;;5042337;28;20241;-79
2023/07/28 03:25:41;;;;;;;31.45;14.90;;;19.20;99.90;;;;;;5066286;28;20217;-77
2023/07/28 03:28:07;;;;;;;33.92;16.38;;;19.30;99.90;;;;;;5066441;28;20715;-79
2023/07/28 03:30:34;;;;;;;36.40;14.63;;;19.20;99.90;;;;;;5032771;28;20779;-79
2023/07/28 03:33:04;;;;;;;28.85;14.10;;;19.20;99.90;;;;;;5037120;28;20209;-78
2023/07/28 03:35:31;;;;;;;33.00;15.73;;;19.20;99.90;;;;;;5041619;28;20280;-77
2023/07/28 03:37:58;;;;;;;33.42;15.38;;;19.20;99.90;;;;;;5049694;28;20925;-79
2023/07/28 03:40:25;;;;;;;33.75;15.07;;;19.20;99.90;;;;;;5050543;28;20538;-78
2023/07/28 03:42:53;;;;;;;32.13;14.80;;;19.30;99.90;;;;;;5037908;28;20224;-78
2023/07/28 03:45:20;;;;;;;31.33;15.07;;;19.10;99.90;;;;;;5045306;28;20225;-79
2023/07/28 03:47:47;;;;;;;31.67;14.93;;;19.10;99.90;;;;;;5042272;28;20209;-80
2023/07/28 03:50:14;;;;;;;38.45;16.25;;;19.20;99.90;;;;;;5047919;28;20220;-78
2023/07/28 03:52:41;;;;;;;33.17;14.23;;;19.20;99.90;;;;;;5050081;28;20197;-79
2023/07/28 03:55:08;;;;;;;33.78;14.18;;;19.20;99.90;;;;;;5050732;28;20201;-79
2023/07/28 03:57:34;;;;;;;38.28;16.23;;;19.20;99.90;;;;;;5048648;28;21190;-80
2023/07/28 04:00:01;;;;;;;33.63;15.55;;;19.20;99.90;;;;;;5033884;28;20730;-78
2023/07/28 04:02:28;;;;;;;37.67;14.98;;;19.20;99.90;;;;;;5043792;28;20206;-79
2023/07/28 04:04:56;;;;;;;34.50;15.60;;;19.20;99.90;;;;;;5045712;28;20228;-78
2023/07/28 04:07:23;;;;;;;39.83;15.82;;;19.20;99.90;;;;;;5049616;28;20201;-78
2023/07/28 04:09:50;;;;;;;40.30;16.27;;;19.20;99.90;;;;;;5048203;28;20189;-81
2023/07/28 04:12:17;;;;;;;37.55;15.18;;;19.20;99.90;;;;;;5041146;28;20206;-79
2023/07/28 04:14:43;;;;;;;39.90;15.43;;;19.20;99.90;;;;;;5038731;28;20700;-79
2023/07/28 04:17:13;;;;;;;37.25;14.88;;;19.20;99.90;;;;;;5041298;28;20206;-79
2023/07/28 04:19:40;;;;;;;35.38;14.63;;;19.20;99.90;;;;;;5044838;28;20204;-80
2023/07/28 04:22:07;;;;;;;37.35;15.80;;;19.20;99.90;;;;;;5047738;28;20573;-79
2023/07/28 04:24:34;;;;;;;45.85;16.52;;;19.30;99.90;;;;;;5049990;28;20327;-79
2023/07/28 04:27:01;;;;;;;38.05;14.45;;;19.30;99.90;;;;;;5049681;28;20217;-79
2023/07/28 04:29:28;;;;;;;39.22;16.15;;;19.20;99.90;;;;;;5049019;28;20209;-79
2023/07/28 04:31:55;;;;;;;43.30;15.32;;;19.30;99.90;;;;;;5048210;28;20650;-78
2023/07/28 04:34:21;;;;;;;38.17;15.68;;;19.30;99.90;;;;;;5049825;28;20201;-78
2023/07/28 04:36:51;;;;;;;42.70;16.25;;;19.40;99.90;;;;;;5038564;28;20692;-80
2023/07/28 04:39:18;;;;;;;35.95;14.98;;;19.30;99.90;;;;;;5050330;28;20185;-79
2023/07/28 04:41:45;;;;;;;41.33;15.93;;;19.30;99.90;;;;;;5042895;28;20228;-79
2023/07/28 04:44:12;;;;;;;37.35;14.57;;;19.30;99.90;;;;;;5049614;28;20201;-77
2023/07/28 04:46:38;;;;;;;37.05;14.40;;;19.30;99.90;;;;;;5050060;28;20205;-78
2023/07/28 04:49:05;;;;;;;38.63;15.07;;;19.30;99.90;;;;;;5050615;28;20216;-77
2023/07/28 04:51:32;;;;;;;36.10;15.07;;;19.30;99.90;;;;;;5046170;28;20205;-79
2023/07/28 04:53:59;;;;;;;35.45;15.60;;;19.30;99.90;;;;;;5044157;28;21712;-77
2023/07/28 04:56:26;;;;;;;31.73;13.93;;;19.40;99.90;;;;;;5036078;28;20213;-78
2023/07/28 04:58:54;;;;;;;35.88;15.43;;;19.40;99.90;;;;;;5049684;28;20241;-78
2023/07/28 05:01:21;;;;;;;34.35;14.85;;;19.40;99.90;;;;;;5036761;28;20220;-79
2023/07/28 05:03:48;;;;;;;36.00;14.93;;;19.40;99.90;;;;;;5047190;28;20255;-78
2023/07/28 05:06:15;;;;;;;38.92;15.02;;;19.50;99.90;;;;;;5039410;28;20697;-77
2023/07/28 05:08:42;;;;;;;40.10;15.52;;;19.50;99.90;;;;;;5038476;28;20205;-79
2023/07/28 05:11:08;;;;;;;33.08;13.85;;;19.50;99.90;;;;;;5035661;28;20233;-77
2023/07/28 05:13:35;;;;;;;30.48;13.25;;;19.60;99.90;;;;;;5038082;28;20673;-78
2023/07/28 05:16:02;;;;;;;34.22;14.50;;;19.60;99.90;;;;;;5036630;28;20213;-78
2023/07/28 05:18:29;;;;;;;34.33;14.25;;;19.70;99.90;;;;;;5039918;28;20253;-77
2023/07/28 05:20:56;;;;;;;31.02;13.70;;;19.60;99.90;;;;;;5035620;28;20209;-78
2023/07/28 05:23:23;;;;;;;32.28;14.55;;;19.60;99.90;;;;;;5039696;28;20206;-79
2023/07/28 05:25:49;;;;;;;34.25;14.48;;;19.60;99.90;;;;;;5037948;28;20217;-78
2023/07/28 05:28:16;;;;;;;32.17;14.05;;;19.70;99.90;;;;;;5046057;28;20201;-79
2023/07/28 05:30:43;;;;;;;31.15;12.98;;;19.70;99.90;;;;;;5049437;28;20225;-78
2023/07/28 05:33:11;;;;;;;34.65;14.13;;;19.70;99.90;;;;;;5064593;28;20676;-78
2023/07/28 05:35:38;;;;;;;31.80;13.40;;;19.60;99.90;;;;;;5060102;28;20212;-78
2023/07/28 05:38:06;;;;;;;32.30;13.35;;;19.60;99.90;;;;;;5066058;28;20197;-79
2023/07/28 05:40:32;;;;;;;32.45;13.43;;;19.60;99.90;;;;;;5063155;28;20208;-78
2023/07/28 05:42:59;;;;;;;35.80;13.73;;;19.60;99.90;;;;;;5063361;28;20216;-78
2023/07/28 05:45:26;;;;;;;32.75;13.05;;;19.70;99.90;;;;;;5038035;28;20228;-77
2023/07/28 05:47:53;;;;;;;30.95;13.50;;;19.70;99.90;;;;;;5062186;28;20208;-77
2023/07/28 05:50:20;;;;;;;30.85;13.50;;;19.60;99.90;;;;;;5057113;28;20219;-79
2023/07/28 05:52:47;;;;;;;31.90;13.02;;;19.60;99.90;;;;;;5065256;28;20200;-79
2023/07/28 05:55:16;;;;;;;33.05;12.73;;;19.60;99.90;;;;;;5059151;28;20209;-78
2023/07/28 05:57:43;;;;;;;31.92;13.55;;;19.70;99.90;;;;;;5052416;28;20679;-80
2023/07/28 06:00:11;;;;;;;37.67;14.18;;;19.60;99.90;;;;;;5064161;28;20204;-79
2023/07/28 06:02:39;;;;;;;27.98;12.68;;;19.50;99.90;;;;;;5066435;28;20196;-80
2023/07/28 06:05:06;;;;;;;32.33;12.55;;;19.50;99.90;;;;;;5042145;28;20224;-80
2023/07/28 06:07:34;;;;;;;29.85;12.57;;;19.50;99.90;;;;;;5059792;28;20665;-80
2023/07/28 06:10:01;;;;;;;32.08;12.80;;;19.50;99.90;;;;;;5060813;28;20556;-80
2023/07/28 06:12:27;;;;;;;34.80;12.80;;;19.70;99.90;;;;;;5058037;28;20239;-79
2023/07/28 06:14:54;;;;;;;35.40;12.32;;;19.60;99.90;;;;;;5058396;28;20593;-80
2023/07/28 06:17:21;;;;;;;38.40;13.60;;;19.60;99.90;;;;;;5067081;28;20200;-78
2023/07/28 06:19:48;;;;;;;32.35;13.02;;;19.70;99.90;;;;;;5068383;28;20258;-79
2023/07/28 06:22:15;;;;;;;33.33;12.38;;;19.70;99.90;;;;;;5049891;28;20197;-82
2023/07/28 06:24:42;;;;;;;26.75;11.52;;;19.80;99.90;;;;;;5067507;28;20258;-80
2023/07/28 06:27:10;;;;;;;32.05;12.40;;;19.70;99.90;;;;;;5067029;28;20259;-80
2023/07/28 06:29:37;;;;;;;30.25;12.02;;;19.80;99.90;;;;;;5049634;28;20209;-82
2023/07/28 06:32:06;;;;;;;30.52;12.02;;;19.70;99.90;;;;;;5066329;28;20229;-81
2023/07/28 06:34:33;;;;;;;31.20;13.02;;;19.80;99.90;;;;;;5049571;28;20205;-81
2023/07/28 06:37:00;;;;;;;32.65;12.75;;;19.80;99.90;;;;;;5067828;28;20258;-78
2023/07/28 06:39:27;;;;;;;34.20;13.40;;;19.90;99.90;;;;;;5067775;28;20208;-79
2023/07/28 06:41:54;;;;;;;29.45;12.52;;;20.00;99.90;;;;;;5064794;28;20224;-80
2023/07/28 06:44:21;;;;;;;29.15;12.35;;;19.90;99.90;;;;;;5068074;28;20577;-81
2023/07/28 06:46:54;;;;;;;26.65;12.63;;;19.90;99.90;;;;;;5067843;28;20696;-79
2023/07/28 06:49:21;;;;;;;33.28;12.98;;;20.00;99.90;;;;;;5054538;28;20204;-80
2023/07/28 06:51:48;;;;;;;29.55;14.20;;;20.00;99.90;;;;;;5061279;28;20207;-81
2023/07/28 06:54:14;;;;;;;27.50;13.02;;;20.00;99.90;;;;;;5067934;28;20205;-81
2023/07/28 06:56:41;;;;;;;30.08;14.43;;;19.90;99.90;;;;;;5066765;28;20217;-80
2023/07/28 06:59:08;;;;;;;32.20;14.30;;;20.00;99.90;;;;;;5067003;28;20215;-78
2023/07/28 07:01:45;;;;;;;31.00;14.05;;;19.90;99.90;;;;;;5067450;28;20666;-80
2023/07/28 07:04:12;;;;;;;31.67;14.43;;;19.90;99.90;;;;;;5041667;28;20278;-81
2023/07/28 07:06:39;;;;;;;31.70;14.80;;;20.00;99.90;;;;;;5061738;28;20574;-81
2023/07/28 07:09:06;;;;;;;31.10;14.65;;;20.00;99.90;;;;;;5071697;28;20200;-81
2023/07/28 07:11:33;;;;;;;28.10;13.40;;;20.10;99.90;;;;;;5070938;28;20220;-81
2023/07/28 07:14:01;;;;;;;25.90;13.32;;;20.10;99.90;;;;;;5072967;28;20258;-80
2023/07/28 07:16:27;;;;;;;26.13;12.90;;;20.10;99.90;;;;;;5069560;28;20653;-81
2023/07/28 07:18:54;;;;;;;22.90;11.80;;;20.10;99.90;;;;;;5063918;28;20252;-81
2023/07/28 07:21:21;;;;;;;23.63;12.40;;;20.10;99.90;;;;;;5047429;28;20197;-81
2023/07/28 07:23:50;;;;;;;24.80;11.63;;;20.00;99.90;;;;;;5058434;28;20230;-81
2023/07/28 07:26:16;;;;;;;23.17;11.43;;;20.10;99.90;;;;;;5070975;28;20680;-81
2023/07/28 07:28:43;;;;;;;23.52;11.85;;;20.10;99.90;;;;;;5070548;28;20239;-82
2023/07/28 07:31:13;;;;;;;19.80;11.25;;;20.10;99.90;;;;;;5052315;28;20228;-81
2023/07/28 07:33:41;;;;;;;21.98;11.00;;;19.90;99.90;;;;;;5070554;28;20201;-82
2023/07/28 07:36:13;;;;;;;18.33;10.07;;;20.10;99.90;;;;;;5070774;28;20461;-81
2023/07/28 07:38:40;;;;;;;19.55;10.18;;;20.10;99.90;;;;;;5047624;28;20687;-80
2023/07/28 07:41:10;;;;;;;20.05;10.73;;;20.10;99.90;;;;;;5057947;28;20219;-80
2023/07/28 07:43:37;;;;;;;20.05;11.02;;;20.20;99.90;;;;;;5052032;28;20200;-80
2023/07/28 07:46:04;;;;;;;20.02;10.95;;;20.10;99.90;;;;;;5052615;28;20595;-81
2023/07/28 07:48:31;;;;;;;21.95;11.63;;;20.30;99.90;;;;;;5069929;28;20949;-80
2023/07/28 07:50:58;;;;;;;18.13;10.27;;;20.30;99.90;;;;;;5052582;28;20609;-80
2023/07/28 07:53:25;;;;;;;17.73;11.00;;;20.30;99.90;;;;;;5069716;28;20207;-79
2023/07/28 07:55:54;;;;;;;16.92;10.40;;;20.30;99.90;;;;;;5069805;28;20432;-81
2023/07/28 07:58:24;;;;;;;22.02;11.48;;;20.20;99.90;;;;;;5052256;28;20255;-80
2023/07/28 08:00:50;;;;;;;20.20;10.85;;;20.20;99.90;;;;;;5070486;28;20240;-82
2023/07/28 08:03:17;;;;;;;25.55;12.75;;;20.20;99.90;;;;;;5070514;28;20291;-80
2023/07/28 08:05:44;;;;;;;20.02;11.88;;;20.20;99.90;;;;;;5050141;28;20236;-81
2023/07/28 08:08:11;;;;;;;20.90;11.90;;;20.20;99.90;;;;;;5052555;28;20227;-80
2023/07/28 08:10:39;;;;;;;26.02;13.77;;;20.20;99.90;;;;;;5071069;28;20220;-81
2023/07/28 08:13:06;;;;;;;24.45;13.23;;;20.20;99.90;;;;;;5053055;28;20289;-81
2023/07/28 08:15:33;;;;;;;26.40;13.45;;;20.20;99.90;;;;;;5065010;28;20266;-81
2023/07/28 08:18:01;;;;;;;26.60;14.70;;;20.30;99.90;;;;;;5059557;28;20208;-83
2023/07/28 08:20:28;;;;;;;23.75;13.38;;;20.30;99.90;;;;;;5070632;28;20283;-80
2023/07/28 08:22:55;;;;;;;29.45;14.23;;;20.30;99.90;;;;;;5064279;28;20662;-81
2023/07/28 08:25:24;;;;;;;25.25;13.85;;;20.40;99.90;;;;;;5063525;28;20229;-81
2023/07/28 08:27:51;;;;;;;25.58;12.43;;;20.30;99.90;;;;;;5052205;28;20213;-81
2023/07/28 08:30:18;;;;;;;19.40;11.85;;;20.40;99.90;;;;;;5047977;28;20237;-80
2023/07/28 08:32:46;;;;;;;21.35;12.52;;;20.50;99.90;;;;;;5049438;28;20673;-80
2023/07/28 08:35:13;;;;;;;22.35;11.82;;;20.50;99.90;;;;;;5049134;28;20213;-80
2023/07/28 08:37:40;;;;;;;23.83;11.43;;;20.50;99.90;;;;;;5042133;28;20617;-81
2023/07/28 08:40:08;;;;;;;19.98;10.48;;;20.60;99.90;;;;;;5043507;28;20209;-80
2023/07/28 08:42:37;;;;;;;19.25;9.63;;;20.70;99.90;;;;;;5058368;28;20633;-80
2023/07/28 08:45:05;;;;;;;18.25;10.13;;;20.70;99.90;;;;;;5049721;28;20259;-81
2023/07/28 08:47:32;;;;;;;20.75;11.02;;;20.70;99.90;;;;;;5048148;28;20221;-80
2023/07/28 08:50:00;;;;;;;18.75;10.65;;;20.70;99.90;;;;;;5048954;28;20197;-81
2023/07/28 08:52:27;;;;;;;22.92;10.95;;;20.90;99.90;;;;;;5048237;28;20213;-80
2023/07/28 08:54:54;;;;;;;17.45;10.10;;;20.60;99.90;;;;;;5048439;28;20665;-80
2023/07/28 08:57:21;;;;;;;17.85;10.77;;;20.80;99.90;;;;;;5048639;28;20247;-80
2023/07/28 08:59:48;;;;;;;18.73;9.45;;;20.80;99.90;;;;;;5050524;28;20220;-80
2023/07/28 09:02:19;;;;;;;17.15;9.25;;;20.70;99.90;;;;;;5048587;28;20264;-80
2023/07/28 09:04:48;;;;;;;15.85;9.45;;;20.70;99.90;;;;;;5049710;28;20217;-80
2023/07/28 09:07:15;;;;;;;14.25;8.65;;;20.50;99.90;;;;;;5048486;28;20225;-79
2023/07/28 09:09:42;;;;;;;13.77;7.93;;;20.70;99.90;;;;;;5050230;28;20201;-79
2023/07/28 09:12:09;;;;;;;15.32;8.85;;;20.80;99.90;;;;;;5051489;28;20237;-81
2023/07/28 09:14:37;;;;;;;13.90;7.95;;;20.90;99.90;;;;;;5050604;28;20208;-82
2023/07/28 09:17:09;;;;;;;15.68;8.20;;;21.00;99.90;;;;;;5044070;28;20201;-80
2023/07/28 09:19:52;;;;;;;15.45;8.90;;;21.00;99.90;;;;;;5048641;28;20247;-80
2023/07/28 09:22:20;;;;;;;11.70;7.32;;;21.10;99.90;;;;;;5048255;28;20291;-79
2023/07/28 09:24:51;;;;;;;15.82;7.50;;;21.10;99.90;;;;;;5049426;28;20574;-80
2023/07/28 09:27:23;;;;;;;12.60;6.70;;;21.20;99.90;;;;;;5048626;28;20290;-80
2023/07/28 09:29:52;;;;;;;13.20;7.10;;;21.30;99.90;;;;;;5052043;28;20212;-80
2023/07/28 09:32:32;;;;;;;10.18;7.05;;;21.50;99.90;;;;;;5055043;28;20228;-83
2023/07/28 09:35:11;;;;;;;12.75;6.68;;;21.60;99.90;;;;;;5073053;28;20200;-81
2023/07/28 09:37:40;;;;;;;12.70;6.65;;;22.00;99.90;;;;;;5074584;28;20534;-81
2023/07/28 09:40:11;;;;;;;10.93;6.65;;;22.40;99.90;;;;;;5071292;28;20236;-79
2023/07/28 09:42:44;;;;;;;8.75;5.95;;;22.80;99.90;;;;;;5056352;28;20316;-80
2023/07/28 09:45:13;;;;;;;11.98;5.63;;;23.30;99.90;;;;;;5051040;28;20208;-80
2023/07/28 09:48:02;;;;;;;10.25;5.43;;;23.50;99.90;;;;;;5068758;28;20222;-81
2023/07/28 09:50:38;;;;;;;11.63;5.25;;;23.70;99.90;;;;;;5069293;28;20197;-81
2023/07/28 09:53:09;;;;;;;9.52;6.40;;;23.60;99.90;;;;;;5068125;28;20212;-80
2023/07/28 09:55:42;;;;;;;6.70;5.18;;;23.70;99.90;;;;;;5068716;28;20366;-81
2023/07/28 09:58:12;;;;;;;8.18;5.45;;;23.70;99.90;;;;;;5066509;28;20664;-80
2023/07/28 10:00:40;;;;;;;8.15;5.78;;;23.80;99.90;;;;;;5069309;28;20211;-82
2023/07/28 10:03:09;;;;;;;8.93;5.20;;;23.90;99.90;;;;;;5069641;28;20200;-80
2023/07/28 10:05:40;;;;;;;8.80;4.55;;;24.30;99.90;;;;;;5052471;28;20239;-82
2023/07/28 10:08:07;;;;;;;6.75;4.30;;;24.60;99.90;;;;;;5050966;28;20257;-80
2023/07/28 10:10:35;;;;;;;5.18;4.15;;;24.90;99.90;;;;;;5050247;28;20733;-79
2023/07/28 10:13:07;;;;;;;8.63;5.18;;;25.00;99.90;;;;;;5067800;28;20224;-82
2023/07/28 10:15:34;;;;;;;10.13;5.00;;;25.00;99.90;;;;;;5068605;28;20196;-79
2023/07/28 10:18:01;;;;;;;7.93;4.72;;;25.10;99.90;;;;;;5055224;28;20208;-80
2023/07/28 10:20:38;;;;;;;7.10;4.10;;;25.40;99.90;;;;;;5049662;28;20227;-82
2023/07/28 10:23:07;;;;;;;10.15;4.78;;;25.70;99.90;;;;;;5067555;28;20298;-79
2023/07/28 10:25:36;;;;;;;5.80;3.80;;;25.90;99.90;;;;;;5067092;28;20364;-80
2023/07/28 10:28:05;;;;;;;10.13;4.07;;;26.00;99.90;;;;;;5067292;28;20304;-79
2023/07/28 10:30:37;;;;;;;5.80;3.78;;;25.90;99.90;;;;;;5067170;28;20229;-79
2023/07/28 10:33:05;;;;;;;6.57;3.85;;;25.90;99.90;;;;;;5067594;28;20208;-78
2023/07/28 10:35:33;;;;;;;6.55;3.80;;;26.00;99.90;;;;;;5067357;28;20239;-79
2023/07/28 10:38:38;;;;;;;5.00;3.28;;;26.00;99.90;;;;;;5049596;28;20291;-78
2023/07/28 10:41:13;;;;;;;5.63;3.22;;;26.00;99.90;;;;;;5063947;28;20196;-79
2023/07/28 10:43:45;;;;;;;6.45;3.17;;;25.90;99.90;;;;;;5053862;28;20246;-78
2023/07/28 10:46:16;;;;;;;4.78;3.00;;;26.00;99.90;;;;;;5071638;28;20315;-79
2023/07/28 10:48:45;;;;;;;5.78;2.90;;;26.00;99.90;;;;;;5070785;28;20262;-80
2023/07/28 10:51:19;;;;;;;6.20;2.88;;;26.00;99.90;;;;;;5071350;28;20739;-82
2023/07/28 10:53:49;;;;;;;4.97;2.30;;;26.00;99.90;;;;;;5063860;28;20215;-78
2023/07/28 10:56:17;;;;;;;4.38;2.40;;;26.00;99.90;;;;;;5059447;28;20205;-79
2023/07/28 10:58:44;;;;;;;4.15;2.50;;;26.10;99.90;;;;;;5050729;28;20212;-77
2023/07/28 11:01:11;;;;;;;5.30;2.90;;;26.20;99.90;;;;;;5070760;28;20574;-78
2023/07/28 11:03:40;;;;;;;6.78;3.40;;;26.20;99.90;;;;;;5070821;28;20362;-78
2023/07/28 11:06:07;;;;;;;6.15;3.30;;;26.30;99.90;;;;;;5071633;28;20244;-80
2023/07/28 11:08:35;;;;;;;5.70;3.42;;;26.50;99.90;;;;;;5053823;28;20216;-79
2023/07/28 11:11:04;;;;;;;3.95;2.95;;;26.50;99.90;;;;;;5071676;28;20635;-78
2023/07/28 11:13:31;;;;;;;4.65;3.35;;;26.60;99.90;;;;;;5057524;28;20602;-78
2023/07/28 11:16:08;;;;;;;4.70;3.55;;;26.50;99.90;;;;;;5067546;28;20566;-79
2023/07/28 11:18:35;;;;;;;5.10;3.45;;;26.50;99.90;;;;;;5070129;28;20227;-79
2023/07/28 11:21:02;;;;;;;3.83;2.88;;;26.20;99.90;;;;;;5070423;28;20686;-78
2023/07/28 11:23:29;;;;;;;5.32;3.45;;;26.00;99.90;;;;;;5070599;28;20257;-81
2023/07/28 11:25:58;;;;;;;6.03;4.10;;;25.70;99.90;;;;;;5053543;28;20342;-82
2023/07/28 11:28:25;;;;;;;5.60;3.40;;;25.50;99.90;;;;;;5070253;28;20224;-78
2023/07/28 11:30:53;;;;;;;5.22;3.40;;;25.40;99.90;;;;;;5070217;28;20283;-79
2023/07/28 11:33:20;;;;;;;5.88;3.65;;;25.70;99.90;;;;;;5052262;28;20208;-78
2023/07/28 11:35:49;;;;;;;5.78;3.42;;;25.90;99.90;;;;;;5070972;28;20218;-77
2023/07/28 11:38:19;;;;;;;5.22;3.03;;;26.10;99.90;;;;;;5070591;28;20219;-78
2023/07/28 11:40:46;;;;;;;7.07;2.88;;;26.40;99.90;;;;;;5050765;28;20201;-79
2023/07/28 11:43:13;;;;;;;4.85;3.05;;;26.60;99.90;;;;;;5049895;28;20266;-80
2023/07/28 11:45:40;;;;;;;4.45;3.65;;;26.80;99.90;;;;;;5070984;28;20394;-80
2023/07/28 11:48:07;;;;;;;5.97;3.45;;;26.90;99.90;;;;;;5052361;28;20228;-79
2023/07/28 11:50:40;;;;;;;5.57;3.42;;;26.80;99.90;;;;;;5069844;28;20246;-78
2023/07/28 11:53:08;;;;;;;5.47;3.78;;;27.00;99.90;;;;;;5070781;28;20215;-78
2023/07/28 11:55:36;;;;;;;6.22;3.85;;;27.30;99.90;;;;;;5070596;28;20806;-79
2023/07/28 11:58:05;;;;;;;7.28;3.20;;;27.60;99.90;;;;;;5052167;28;20246;-78
2023/07/28 12:00:36;;;;;;;5.82;3.70;;;27.60;99.90;;;;;;5070466;28;20196;-78
2023/07/28 12:03:10;;;;;;;4.75;2.95;;;27.40;99.90;;;;;;5070763;28;20209;-78
2023/07/28 12:05:58;;;;;;;3.92;3.13;;;27.20;99.90;;;;;;5070656;28;20652;-80
2023/07/28 12:08:39;;;;;;;5.47;3.47;;;27.10;99.90;;;;;;5061599;28;20235;-79
2023/07/28 12:11:13;;;;;;;5.72;2.70;;;27.00;99.90;;;;;;5069845;28;20284;-79
2023/07/28 12:13:52;;;;;;;5.70;3.58;;;27.20;99.90;;;;;;5070723;28;20512;-80
2023/07/28 12:16:39;;;;;;;7.35;4.53;;;27.30;99.90;;;;;;5051648;28;20263;-78
2023/07/28 12:19:09;;;;;;;6.47;4.63;;;27.40;99.90;;;;;;5069026;28;20672;-78
2023/07/28 12:21:36;;;;;;;8.68;5.40;;;27.60;99.90;;;;;;5070650;28;20577;-80
2023/07/28 12:24:03;;;;;;;6.88;4.00;;;27.60;99.90;;;;;;5052446;28;20231;-79
2023/07/28 12:26:33;;;;;;;4.82;3.92;;;27.80;99.90;;;;;;5069326;28;20243;-81
2023/07/28 12:29:03;;;;;;;6.45;4.97;;;27.80;99.90;;;;;;5070002;28;20208;-80
2023/07/28 12:31:36;;;;;;;7.60;5.57;;;27.80;99.90;;;;;;5069986;28;20259;-80
2023/07/28 12:34:05;;;;;;;7.35;4.85;;;27.70;99.90;;;;;;5070101;28;20270;-80
2023/07/28 12:36:33;;;;;;;8.38;5.57;;;27.60;99.90;;;;;;5052285;28;20200;-78
2023/07/28 12:39:03;;;;;;;7.35;5.18;;;27.60;99.90;;;;;;5069611;28;20288;-79